Time;durP1;ratioP1;P1;durP2;ratioP2;P2;SDS_P1;SDS_P2;PMS_P1;PMS_P2;Temp;Humidity;BMP_temperature;BMP_pressure;BME280_temperature;BME280_humidity;BME280_pressure;Samples;Min_cycle;Max_cycle;Signal;HPM_P1;HPM_P2
2023/12/19 00:02:05;;;;;;;0.65;0.65;;;;;;;0.51;100.00;100482.63;5092899;28;20506;-58
2023/12/19 00:04:33;;;;;;;0.80;0.80;;;;;;;0.51;100.00;100497.63;5098543;28;20074;-58
2023/12/19 00:07:00;;;;;;;0.63;0.63;;;;;;;0.53;100.00;100482.50;5075685;28;20044;-58
2023/12/19 00:09:29;;;;;;;0.70;0.70;;;;;;;0.49;100.00;100497.78;5089123;28;20044;-58
2023/12/19 00:11:57;;;;;;;0.80;0.80;;;;;;;0.46;100.00;100500.72;5075501;28;20444;-58
2023/12/19 00:14:24;;;;;;;0.80;0.80;;;;;;;0.40;100.00;100502.13;5091869;28;20400;-58
2023/12/19 00:16:51;;;;;;;0.65;0.65;;;;;;;0.37;100.00;100491.84;5092581;28;20130;-58
2023/12/19 00:19:18;;;;;;;0.80;0.80;;;;;;;0.23;100.00;100496.78;5095558;28;20253;-58
2023/12/19 00:21:45;;;;;;;0.80;0.80;;;;;;;0.20;100.00;100500.53;5074678;28;20040;-59
2023/12/19 00:24:12;;;;;;;0.70;0.70;;;;;;;0.31;100.00;100499.53;5094153;28;20051;-60
2023/12/19 00:26:40;;;;;;;0.70;0.70;;;;;;;0.18;100.00;100492.78;5087292;28;20048;-59
2023/12/19 00:29:07;;;;;;;0.80;0.80;;;;;;;0.16;100.00;100492.06;5095792;28;20093;-58
2023/12/19 00:31:34;;;;;;;0.70;0.70;;;;;;;0.11;100.00;100496.94;5096661;28;20050;-58
2023/12/19 00:34:01;;;;;;;0.70;0.70;;;;;;;0.12;100.00;100490.69;5088660;28;20473;-58
2023/12/19 00:36:28;;;;;;;0.60;0.60;;;;;;;0.04;100.00;100493.22;5093458;28;20055;-58
2023/12/19 00:38:55;;;;;;;0.80;0.80;;;;;;;0.00;100.00;100489.22;5093696;28;20051;-58
2023/12/19 00:41:22;;;;;;;0.80;0.80;;;;;;;0.05;100.00;100476.44;5087855;28;20063;-59
2023/12/19 00:43:50;;;;;;;0.90;0.90;;;;;;;0.10;100.00;100471.56;5089058;28;20055;-59
2023/12/19 00:46:17;;;;;;;0.73;0.73;;;;;;;0.24;100.00;100461.53;5094704;28;20692;-58
2023/12/19 00:48:44;;;;;;;0.70;0.70;;;;;;;0.28;100.00;100468.19;5094223;28;20072;-59
2023/12/19 00:51:12;;;;;;;0.77;0.77;;;;;;;0.33;100.00;100464.13;5090229;28;22494;-58
2023/12/19 00:53:39;;;;;;;0.80;0.80;;;;;;;0.50;100.00;100457.25;5069490;28;20520;-58
2023/12/19 00:56:08;;;;;;;0.68;0.68;;;;;;;0.51;100.00;100469.44;5093171;28;20040;-58
2023/12/19 00:58:36;;;;;;;0.70;0.70;;;;;;;0.44;100.00;100481.56;5097903;28;20082;-59
2023/12/19 01:01:04;;;;;;;0.80;0.80;;;;;;;0.36;100.00;100487.56;5090187;28;20162;-58
2023/12/19 01:03:31;;;;;;;0.70;0.70;;;;;;;0.38;100.00;100484.78;5096247;28;20040;-59
2023/12/19 01:06:00;;;;;;;0.80;0.80;;;;;;;0.37;100.00;100456.72;5098069;28;20044;-59
2023/12/19 01:08:30;;;;;;;0.80;0.80;;;;;;;0.31;100.00;100468.72;5097019;28;20072;-58
2023/12/19 01:10:57;;;;;;;0.60;0.60;;;;;;;0.30;100.00;100474.97;5097715;28;20490;-59
2023/12/19 01:13:24;;;;;;;0.60;0.60;;;;;;;0.49;100.00;100466.13;5094236;28;20054;-59
2023/12/19 01:15:51;;;;;;;0.80;0.80;;;;;;;0.35;100.00;100458.69;5082106;28;20397;-59
2023/12/19 01:18:19;;;;;;;0.73;0.73;;;;;;;0.39;100.00;100458.25;5095590;28;20036;-58
2023/12/19 01:20:47;;;;;;;0.80;0.80;;;;;;;0.29;100.00;100465.38;5095275;28;20416;-58
2023/12/19 01:23:14;;;;;;;0.80;0.80;;;;;;;0.33;100.00;100450.94;5091338;28;20071;-58
2023/12/19 01:25:42;;;;;;;0.70;0.70;;;;;;;0.32;100.00;100451.88;5099323;28;20059;-58
2023/12/19 01:28:07;;;;;;;0.73;0.73;;;;;;;0.11;100.00;100469.75;5089738;28;20047;-59
2023/12/19 01:30:34;;;;;;;0.73;0.73;;;;;;;0.03;100.00;100473.13;5089722;28;20089;-59
2023/12/19 01:33:01;;;;;;;0.70;0.70;;;;;;;0.09;100.00;100467.25;5092598;28;20046;-58
2023/12/19 01:35:30;;;;;;;0.70;0.70;;;;;;;-0.04;100.00;100464.94;5066237;28;20659;-59
2023/12/19 01:37:57;;;;;;;0.70;0.70;;;;;;;0.08;100.00;100465.59;5092717;28;20098;-59
2023/12/19 01:40:24;;;;;;;0.80;0.80;;;;;;;-0.08;100.00;100466.19;5096347;28;20052;-58
2023/12/19 01:42:51;;;;;;;0.80;0.80;;;;;;;0.05;100.00;100471.19;5097158;28;20063;-58
2023/12/19 01:45:19;;;;;;;0.90;0.90;;;;;;;0.07;100.00;100487.66;5091916;28;20152;-59
2023/12/19 01:47:46;;;;;;;0.88;0.88;;;;;;;-0.05;100.00;100492.28;5092562;28;20143;-59
2023/12/19 01:50:14;;;;;;;0.70;0.70;;;;;;;-0.07;100.00;100477.59;5094117;28;20516;-59
2023/12/19 01:52:45;;;;;;;0.60;0.60;;;;;;;-0.16;100.00;100473.16;5092529;28;20133;-58
2023/12/19 01:55:12;;;;;;;0.70;0.70;;;;;;;-0.01;100.00;100472.56;5094558;28;20044;-58
2023/12/19 01:57:39;;;;;;;0.70;0.70;;;;;;;-0.03;100.00;100463.97;5092762;28;20538;-58
2023/12/19 02:00:07;;;;;;;0.80;0.80;;;;;;;-0.14;100.00;100472.06;5096045;28;20051;-58
2023/12/19 02:02:35;;;;;;;0.70;0.70;;;;;;;-0.14;100.00;100466.78;5084441;28;20576;-59
2023/12/19 02:05:01;;;;;;;0.80;0.80;;;;;;;-0.16;100.00;100473.16;5097350;28;20048;-58
2023/12/19 02:07:29;;;;;;;0.70;0.70;;;;;;;-0.25;100.00;100470.44;5098738;28;20375;-59
2023/12/19 02:09:57;;;;;;;0.82;0.82;;;;;;;-0.15;100.00;100459.00;5078240;28;20051;-59
2023/12/19 02:12:24;;;;;;;0.80;0.80;;;;;;;-0.20;100.00;100455.97;5071247;28;20043;-59
2023/12/19 02:14:52;;;;;;;0.88;0.88;;;;;;;-0.31;100.00;100436.72;5094061;28;20536;-59
2023/12/19 02:17:19;;;;;;;0.90;0.90;;;;;;;-0.34;100.00;100439.66;5094825;28;20055;-58
2023/12/19 02:19:46;;;;;;;0.80;0.80;;;;;;;-0.20;100.00;100445.44;5095231;28;20043;-58
2023/12/19 02:22:13;;;;;;;0.63;0.63;;;;;;;-0.31;100.00;100426.19;5091975;28;20527;-58
2023/12/19 02:24:40;;;;;;;0.80;0.80;;;;;;;-0.27;100.00;100432.84;5096569;28;20193;-59
2023/12/19 02:27:08;;;;;;;0.98;0.98;;;;;;;-0.28;100.00;100444.34;5090158;28;20032;-58
2023/12/19 02:29:36;;;;;;;0.70;0.70;;;;;;;-0.28;100.00;100433.78;5095144;28;20048;-59
2023/12/19 02:32:04;;;;;;;0.80;0.80;;;;;;;-0.22;100.00;100420.06;5088222;28;20127;-58
2023/12/19 02:34:31;;;;;;;0.70;0.70;;;;;;;-0.35;100.00;100411.66;5091861;28;20331;-59
2023/12/19 02:36:58;;;;;;;0.88;0.88;;;;;;;-0.31;100.00;100399.84;5096410;28;20034;-58
2023/12/19 02:39:25;;;;;;;0.77;0.77;;;;;;;-0.41;100.00;100385.88;5093828;28;20116;-58
2023/12/19 02:41:53;;;;;;;0.70;0.70;;;;;;;-0.25;100.00;100391.38;5092056;28;20120;-58
2023/12/19 02:44:20;;;;;;;0.70;0.70;;;;;;;-0.38;100.00;100390.03;5096358;28;20044;-58
2023/12/19 02:46:47;;;;;;;0.88;0.88;;;;;;;-0.28;100.00;100396.09;5099949;28;20043;-59
2023/12/19 02:49:14;;;;;;;0.80;0.80;;;;;;;-0.34;100.00;100402.75;5092811;28;20097;-58
2023/12/19 02:51:41;;;;;;;0.73;0.73;;;;;;;-0.37;100.00;100400.44;5089373;28;20054;-58
2023/12/19 02:54:08;;;;;;;0.80;0.80;;;;;;;-0.22;100.00;100396.34;5089209;28;20437;-59
2023/12/19 02:56:35;;;;;;;0.80;0.80;;;;;;;-0.37;100.00;100384.63;5088024;28;20043;-59
2023/12/19 02:59:03;;;;;;;0.70;0.70;;;;;;;-0.35;100.00;100390.59;5090055;28;20135;-59
2023/12/19 03:01:30;;;;;;;0.90;0.90;;;;;;;-0.34;100.00;100392.22;5088080;28;20044;-59
2023/12/19 03:03:57;;;;;;;0.90;0.90;;;;;;;-0.31;100.00;100391.94;5096572;28;20055;-59
2023/12/19 03:06:24;;;;;;;0.80;0.80;;;;;;;-0.27;100.00;100393.31;5089519;28;20057;-59
2023/12/19 03:08:57;;;;;;;0.70;0.70;;;;;;;-0.36;100.00;100386.25;5090768;28;20979;-59
2023/12/19 03:11:24;;;;;;;0.90;0.90;;;;;;;-0.38;100.00;100385.56;5097130;28;20382;-59
2023/12/19 03:13:51;;;;;;;0.82;0.82;;;;;;;-0.41;100.00;100388.50;5092067;28;20040;-59
2023/12/19 03:16:19;;;;;;;0.90;0.90;;;;;;;-0.40;100.00;100386.69;5085243;28;20129;-59
2023/12/19 03:18:46;;;;;;;0.80;0.80;;;;;;;-0.33;100.00;100391.25;5095433;28;20038;-58
2023/12/19 03:21:14;;;;;;;0.80;0.80;;;;;;;-0.41;100.00;100390.31;5088583;28;20451;-58
2023/12/19 03:23:41;;;;;;;0.88;0.88;;;;;;;-0.39;100.00;100383.09;5088699;28;20687;-58
2023/12/19 03:26:08;;;;;;;0.88;0.88;;;;;;;-0.40;100.00;100366.47;5086394;28;20054;-59
2023/12/19 03:28:37;;;;;;;0.80;0.80;;;;;;;-0.43;100.00;100348.28;5091118;28;20662;-58
2023/12/19 03:31:04;;;;;;;1.00;1.00;;;;;;;-0.38;100.00;100353.97;5088223;28;20051;-58
2023/12/19 03:33:33;;;;;;;0.98;0.98;;;;;;;-0.35;100.00;100358.97;5097125;28;20561;-58
2023/12/19 03:36:00;;;;;;;0.80;0.80;;;;;;;-0.38;100.00;100343.44;5087908;28;20040;-59
2023/12/19 03:38:27;;;;;;;0.82;0.82;;;;;;;-0.45;100.00;100335.28;5084178;28;20062;-58
2023/12/19 03:40:54;;;;;;;0.70;0.70;;;;;;;-0.50;100.00;100334.03;5093270;28;20047;-58
2023/12/19 03:43:21;;;;;;;0.90;0.90;;;;;;;-0.48;100.00;100313.66;5091767;28;20130;-58
2023/12/19 03:45:48;;;;;;;0.80;0.80;;;;;;;-0.42;100.00;100302.56;5091299;28;20412;-58
2023/12/19 03:48:15;;;;;;;0.80;0.80;;;;;;;-0.44;100.00;100284.25;5094691;28;20131;-58
2023/12/19 03:50:43;;;;;;;0.63;0.63;;;;;;;-0.44;100.00;100268.44;5089574;28;20134;-59
2023/12/19 03:53:10;;;;;;;0.80;0.80;;;;;;;-0.32;100.00;100263.00;5090638;28;20071;-58
2023/12/19 03:55:37;;;;;;;0.90;0.90;;;;;;;-0.27;100.00;100271.28;5089959;28;20513;-59
2023/12/19 03:58:04;;;;;;;0.80;0.80;;;;;;;-0.29;100.00;100289.88;5064191;28;20512;-59
2023/12/19 04:00:31;;;;;;;0.68;0.68;;;;;;;-0.49;100.00;100285.69;5089958;28;20051;-59
2023/12/19 04:02:58;;;;;;;0.88;0.88;;;;;;;-0.43;100.00;100303.53;5077124;28;20060;-59
2023/12/19 04:05:25;;;;;;;0.70;0.70;;;;;;;-0.22;100.00;100293.59;5089508;28;20502;-58
2023/12/19 04:07:56;;;;;;;0.70;0.70;;;;;;;-0.32;100.00;100290.19;5098308;28;20047;-58
2023/12/19 04:10:23;;;;;;;;;;;;;;;-0.35;100.00;100293.09;5087182;28;20040;-58
2023/12/19 04:12:50;;;;;;;0.90;0.90;;;;;;;-0.34;100.00;100302.66;5071734;28;20764;-59
2023/12/19 04:15:17;;;;;;;0.80;0.80;;;;;;;-0.35;100.00;100311.56;5089405;28;20151;-58
2023/12/19 04:17:44;;;;;;;0.80;0.80;;;;;;;-0.33;100.00;100314.84;5096773;28;20051;-59
2023/12/19 04:20:12;;;;;;;0.80;0.80;;;;;;;-0.23;100.00;100317.44;5094409;28;20073;-58
2023/12/19 04:22:39;;;;;;;0.80;0.80;;;;;;;-0.20;100.00;100314.53;5093706;28;20417;-58
2023/12/19 04:25:08;;;;;;;0.90;0.90;;;;;;;-0.35;100.00;100294.88;5090787;28;20051;-59
2023/12/19 04:27:36;;;;;;;0.80;0.80;;;;;;;-0.37;100.00;100292.41;5095515;28;20031;-58
2023/12/19 04:30:03;;;;;;;0.80;0.80;;;;;;;-0.23;100.00;100284.00;5085046;28;20070;-58
2023/12/19 04:32:30;;;;;;;0.80;0.80;;;;;;;-0.18;100.00;100294.09;5096595;28;20039;-59
2023/12/19 04:34:57;;;;;;;0.75;0.75;;;;;;;-0.11;100.00;100294.38;5091529;28;20066;-59
2023/12/19 04:37:24;;;;;;;0.80;0.80;;;;;;;-0.26;100.00;100294.03;5093993;28;20032;-59
2023/12/19 04:39:51;;;;;;;0.70;0.70;;;;;;;-0.19;100.00;100299.53;5088252;28;20043;-59
2023/12/19 04:42:19;;;;;;;0.80;0.80;;;;;;;-0.22;100.00;100304.13;5085621;28;20036;-58
2023/12/19 04:44:47;;;;;;;0.80;0.80;;;;;;;-0.13;100.00;100298.94;5083197;28;20131;-58
2023/12/19 04:47:14;;;;;;;0.70;0.70;;;;;;;-0.15;100.00;100296.47;5096256;28;20048;-59
2023/12/19 04:49:41;;;;;;;0.80;0.80;;;;;;;-0.12;100.00;100303.25;5069494;28;20044;-58
2023/12/19 04:52:08;;;;;;;0.65;0.65;;;;;;;-0.04;100.00;100298.91;5093198;28;20040;-59
2023/12/19 04:54:34;;;;;;;0.90;0.90;;;;;;;-0.11;100.00;100289.09;5089610;28;20051;-59
2023/12/19 04:57:01;;;;;;;0.70;0.70;;;;;;;-0.07;100.00;100282.56;5090916;28;20170;-59
2023/12/19 04:59:31;;;;;;;0.80;0.80;;;;;;;-0.07;100.00;100272.03;5087730;28;20044;-59
2023/12/19 05:01:58;;;;;;;0.60;0.60;;;;;;;0.06;100.00;100275.13;5070514;28;20047;-59
2023/12/19 05:04:25;;;;;;;0.70;0.70;;;;;;;-0.02;100.00;100269.75;5073806;28;20044;-58
2023/12/19 05:06:52;;;;;;;0.88;0.88;;;;;;;-0.02;100.00;100262.69;5096252;28;20059;-58
2023/12/19 05:09:20;;;;;;;0.73;0.73;;;;;;;0.09;100.00;100269.53;5088130;28;20060;-59
2023/12/19 05:11:47;;;;;;;0.85;0.85;;;;;;;0.08;100.00;100265.25;5088554;28;20048;-58
2023/12/19 05:14:14;;;;;;;0.70;0.70;;;;;;;0.14;100.00;100259.38;5087090;28;20048;-58
2023/12/19 05:16:42;;;;;;;0.80;0.80;;;;;;;0.20;100.00;100244.75;5094833;28;20054;-58
2023/12/19 05:19:09;;;;;;;0.73;0.73;;;;;;;0.21;100.00;100251.69;5087877;28;20065;-59
2023/12/19 05:21:39;;;;;;;0.80;0.80;;;;;;;0.31;100.00;100259.53;5085816;28;20436;-59
2023/12/19 05:24:09;;;;;;;0.80;0.80;;;;;;;0.19;100.00;100259.75;5091015;28;20117;-59
2023/12/19 05:26:36;;;;;;;0.70;0.70;;;;;;;0.21;100.00;100257.81;5074627;28;20417;-59
2023/12/19 05:29:03;;;;;;;0.70;0.70;;;;;;;0.25;100.00;100268.03;5089096;28;20058;-59
2023/12/19 05:31:30;;;;;;;0.80;0.80;;;;;;;0.28;100.00;100249.31;5097071;28;20484;-58
2023/12/19 05:33:58;;;;;;;0.93;0.93;;;;;;;0.29;100.00;100250.94;5069424;28;20482;-58
2023/12/19 05:36:25;;;;;;;0.73;0.73;;;;;;;0.20;100.00;100239.47;5093855;28;20501;-58
2023/12/19 05:38:52;;;;;;;0.80;0.80;;;;;;;0.28;100.00;100236.13;5085204;28;20269;-58
2023/12/19 05:41:19;;;;;;;0.80;0.80;;;;;;;0.36;100.00;100244.91;5085420;28;20040;-58
2023/12/19 05:43:46;;;;;;;0.70;0.70;;;;;;;0.37;100.00;100243.94;5089511;28;20035;-59
2023/12/19 05:46:13;;;;;;;0.82;0.82;;;;;;;0.34;100.00;100243.41;5088364;28;20063;-58
2023/12/19 05:48:41;;;;;;;0.90;0.90;;;;;;;0.31;100.00;100239.28;5093845;28;20095;-59
2023/12/19 05:51:10;;;;;;;0.70;0.70;;;;;;;0.40;100.00;100240.16;5092764;28;20067;-59
2023/12/19 05:53:38;;;;;;;0.60;0.60;;;;;;;0.37;100.00;100243.09;5091242;28;20050;-59
2023/12/19 05:56:06;;;;;;;0.60;0.60;;;;;;;0.47;100.00;100233.28;5078546;28;20134;-59
2023/12/19 05:58:33;;;;;;;0.80;0.80;;;;;;;0.49;100.00;100241.06;5098054;28;20065;-58
2023/12/19 06:01:00;;;;;;;0.80;0.80;;;;;;;0.41;100.00;100223.38;5092343;28;20052;-58
2023/12/19 06:03:27;;;;;;;0.80;0.80;;;;;;;0.37;100.00;100227.28;5098046;28;20067;-58
2023/12/19 06:05:54;;;;;;;0.70;0.70;;;;;;;0.42;100.00;100233.78;5100767;28;20055;-59
2023/12/19 06:08:23;;;;;;;0.82;0.82;;;;;;;0.42;100.00;100222.38;5098813;28;20047;-58
2023/12/19 06:10:51;;;;;;;0.80;0.80;;;;;;;0.45;100.00;100224.72;5096432;28;20364;-59
2023/12/19 06:13:19;;;;;;;0.80;0.80;;;;;;;0.43;100.00;100195.03;5087577;28;20199;-59
2023/12/19 06:15:46;;;;;;;0.70;0.70;;;;;;;0.55;100.00;100196.44;5084720;28;20158;-58
2023/12/19 06:18:15;;;;;;;0.50;0.50;;;;;;;0.38;100.00;100184.94;5086592;28;20052;-58
2023/12/19 06:20:42;;;;;;;0.80;0.80;;;;;;;0.52;100.00;100173.00;5091967;28;20265;-59
2023/12/19 06:23:09;;;;;;;0.60;0.60;;;;;;;0.51;100.00;100171.34;5096736;28;20416;-58
2023/12/19 06:25:39;;;;;;;0.70;0.70;;;;;;;0.52;100.00;100174.81;5095846;28;20493;-58
2023/12/19 06:28:06;;;;;;;0.77;0.77;;;;;;;0.48;100.00;100171.66;5090528;28;20490;-59
2023/12/19 06:30:33;;;;;;;0.90;0.90;;;;;;;0.47;100.00;100175.25;5092343;28;20399;-59
2023/12/19 06:33:01;;;;;;;0.80;0.80;;;;;;;0.47;100.00;100169.16;5093797;28;20066;-58
2023/12/19 06:35:28;;;;;;;0.75;0.75;;;;;;;0.43;100.00;100168.66;5095013;28;20129;-58
2023/12/19 06:37:55;;;;;;;0.50;0.50;;;;;;;0.36;100.00;100160.53;5082725;28;20043;-59
2023/12/19 06:40:23;;;;;;;0.85;0.85;;;;;;;0.38;100.00;100152.47;5077692;28;20413;-59
2023/12/19 06:42:51;;;;;;;0.60;0.60;;;;;;;0.31;100.00;100151.41;5091222;28;20750;-59
2023/12/19 06:45:19;;;;;;;0.80;0.80;;;;;;;0.25;100.00;100128.28;5087542;28;20059;-58
2023/12/19 06:47:46;;;;;;;0.80;0.80;;;;;;;0.21;100.00;100125.97;5097962;28;20044;-58
2023/12/19 06:50:13;;;;;;;0.60;0.60;;;;;;;0.13;100.00;100140.91;5087484;28;20056;-58
2023/12/19 06:52:40;;;;;;;0.80;0.80;;;;;;;0.21;100.00;100139.16;5081160;28;20493;-58
2023/12/19 06:55:08;;;;;;;0.73;0.73;;;;;;;0.25;100.00;100138.84;5091397;28;20165;-59
2023/12/19 06:57:35;;;;;;;0.82;0.82;;;;;;;0.26;100.00;100164.25;5087450;28;20040;-58
2023/12/19 07:00:05;;;;;;;0.70;0.70;;;;;;;0.32;100.00;100167.06;5088270;28;20397;-58
2023/12/19 07:02:32;;;;;;;;;;;;;;;0.37;100.00;100170.06;5093034;28;20071;-58
2023/12/19 07:04:59;;;;;;;0.80;0.80;;;;;;;0.27;100.00;100179.06;5091720;28;20438;-58
2023/12/19 07:07:26;;;;;;;0.80;0.80;;;;;;;0.29;100.00;100164.75;5093531;28;20089;-58
2023/12/19 07:09:53;;;;;;;0.65;0.65;;;;;;;0.38;100.00;100157.75;5074042;28;20602;-58
2023/12/19 07:12:20;;;;;;;0.70;0.70;;;;;;;0.40;100.00;100145.19;5089135;28;20051;-58
2023/12/19 07:14:48;;;;;;;0.70;0.70;;;;;;;0.50;100.00;100153.88;5088332;28;20047;-58
2023/12/19 07:17:16;;;;;;;0.90;0.90;;;;;;;0.52;100.00;100146.59;5092601;28;20433;-58
2023/12/19 07:19:44;;;;;;;0.80;0.80;;;;;;;0.54;100.00;100149.09;5092133;28;20059;-58
2023/12/19 07:22:11;;;;;;;0.77;0.77;;;;;;;0.51;100.00;100144.16;5094928;28;20396;-58
2023/12/19 07:24:38;;;;;;;0.80;0.80;;;;;;;0.56;100.00;100169.06;5090746;28;20151;-58
2023/12/19 07:27:05;;;;;;;0.80;0.80;;;;;;;0.59;100.00;100139.72;5093367;28;20044;-58
2023/12/19 07:29:32;;;;;;;0.60;0.60;;;;;;;0.55;100.00;100135.78;5085117;28;20134;-58
2023/12/19 07:32:00;;;;;;;0.65;0.65;;;;;;;0.49;100.00;100141.66;5065604;28;20432;-58
2023/12/19 07:34:30;;;;;;;0.60;0.60;;;;;;;0.51;100.00;100139.69;5091364;28;20796;-60
2023/12/19 07:36:57;;;;;;;0.80;0.80;;;;;;;0.57;100.00;100154.88;5093559;28;20365;-59
2023/12/19 07:39:24;;;;;;;0.80;0.80;;;;;;;0.51;100.00;100147.59;5090496;28;20046;-58
2023/12/19 07:41:51;;;;;;;0.80;0.80;;;;;;;0.58;100.00;100132.81;5097523;28;20039;-60
2023/12/19 07:44:19;;;;;;;0.70;0.70;;;;;;;0.52;100.00;100141.34;5089309;28;20150;-59
2023/12/19 07:46:47;;;;;;;0.60;0.60;;;;;;;0.63;100.00;100149.00;5087158;28;20122;-58
2023/12/19 07:49:14;;;;;;;0.50;0.50;;;;;;;0.51;100.00;100155.50;5087359;28;20047;-58
2023/12/19 07:51:43;;;;;;;0.70;0.70;;;;;;;0.66;100.00;100150.50;5090916;28;20117;-58
2023/12/19 07:54:10;;;;;;;0.70;0.70;;;;;;;0.55;100.00;100127.84;5092681;28;20044;-59
2023/12/19 07:56:40;;;;;;;0.80;0.80;;;;;;;0.62;100.00;100165.81;5092148;28;20032;-59
2023/12/19 07:59:07;;;;;;;0.70;0.70;;;;;;;0.63;100.00;100154.28;5095985;28;20503;-59
2023/12/19 08:01:34;;;;;;;0.80;0.80;;;;;;;0.57;100.00;100141.69;5071791;28;20096;-59
2023/12/19 08:04:01;;;;;;;0.70;0.70;;;;;;;0.75;100.00;100149.56;5093088;28;20039;-58
2023/12/19 08:06:28;;;;;;;0.65;0.65;;;;;;;0.68;100.00;100140.63;5090986;28;22834;-59
2023/12/19 08:08:57;;;;;;;0.50;0.50;;;;;;;0.66;100.00;100152.31;5090479;28;20576;-58
2023/12/19 08:11:24;;;;;;;0.60;0.60;;;;;;;0.74;100.00;100160.28;5092410;28;20075;-58
2023/12/19 08:13:52;;;;;;;0.68;0.68;;;;;;;0.69;100.00;100152.00;5088949;28;20131;-59
2023/12/19 08:16:20;;;;;;;0.70;0.70;;;;;;;0.82;100.00;100157.69;5090929;28;20325;-59
2023/12/19 08:18:50;;;;;;;0.60;0.60;;;;;;;0.68;100.00;100145.09;5093257;28;20524;-58
2023/12/19 08:21:18;;;;;;;0.70;0.70;;;;;;;0.76;100.00;100137.22;5088405;28;20048;-58
2023/12/19 08:23:47;;;;;;;0.70;0.70;;;;;;;0.75;100.00;100140.81;5097367;28;20505;-59
2023/12/19 08:26:15;;;;;;;0.70;0.70;;;;;;;0.62;100.00;100142.09;5089018;28;20040;-59
2023/12/19 08:28:42;;;;;;;0.70;0.70;;;;;;;0.74;100.00;100133.88;5094627;28;20131;-58
2023/12/19 08:31:09;;;;;;;0.70;0.70;;;;;;;0.66;100.00;100136.50;5087269;28;20670;-58
2023/12/19 08:33:38;;;;;;;0.70;0.70;;;;;;;0.72;100.00;100146.41;5090620;28;20062;-58
2023/12/19 08:36:06;;;;;;;0.77;0.77;;;;;;;0.72;100.00;100146.41;5078313;28;20054;-59
2023/12/19 08:38:33;;;;;;;0.70;0.70;;;;;;;0.77;100.00;100146.75;5086603;28;20503;-58
2023/12/19 08:41:00;;;;;;;0.60;0.60;;;;;;;0.71;100.00;100150.03;5086444;28;20457;-59
2023/12/19 08:43:32;;;;;;;0.68;0.68;;;;;;;0.71;100.00;100147.41;5086959;28;20052;-58
2023/12/19 08:45:59;;;;;;;0.60;0.60;;;;;;;0.71;100.00;100150.03;5092859;28;20578;-58
2023/12/19 08:48:26;;;;;;;0.73;0.73;;;;;;;0.84;100.00;100135.41;5084762;28;20075;-58
2023/12/19 08:50:53;;;;;;;0.68;0.68;;;;;;;0.90;100.00;100146.34;5082061;28;20055;-58
2023/12/19 08:53:21;;;;;;;0.57;0.57;;;;;;;0.91;100.00;100140.91;5084785;28;20568;-59
2023/12/19 08:55:48;;;;;;;0.60;0.60;;;;;;;0.93;100.00;100149.50;5084334;28;20167;-59
2023/12/19 08:58:16;;;;;;;0.70;0.70;;;;;;;0.86;100.00;100138.75;5093243;28;20055;-58
2023/12/19 09:00:44;;;;;;;0.70;0.70;;;;;;;0.86;100.00;100114.16;5087481;28;20044;-58
2023/12/19 09:03:11;;;;;;;0.70;0.70;;;;;;;0.84;100.00;100114.31;5087890;28;20315;-58
2023/12/19 09:05:38;;;;;;;0.60;0.60;;;;;;;0.97;100.00;100116.50;5095374;28;20043;-58
2023/12/19 09:08:06;;;;;;;0.60;0.60;;;;;;;0.94;100.00;100110.72;5060262;28;20039;-58
2023/12/19 09:10:33;;;;;;;0.70;0.70;;;;;;;0.96;100.00;100114.88;5090593;28;20058;-58
2023/12/19 09:13:00;;;;;;;0.70;0.70;;;;;;;1.02;100.00;100121.31;5093725;28;20123;-59
2023/12/19 09:15:27;;;;;;;0.70;0.70;;;;;;;0.92;100.00;100136.44;5090938;28;20060;-58
2023/12/19 09:17:56;;;;;;;0.80;0.80;;;;;;;1.01;100.00;100117.84;5093412;28;20571;-58
2023/12/19 09:20:24;;;;;;;0.70;0.70;;;;;;;0.94;100.00;100124.75;5091649;28;20130;-58
2023/12/19 09:22:51;;;;;;;0.80;0.80;;;;;;;0.96;100.00;100125.41;5102230;28;20135;-59
2023/12/19 09:25:18;;;;;;;0.70;0.70;;;;;;;1.02;100.00;100108.97;5099005;28;20134;-59
2023/12/19 09:27:46;;;;;;;0.70;0.70;;;;;;;1.16;100.00;100096.13;5096106;28;20042;-59
2023/12/19 09:30:14;;;;;;;0.60;0.60;;;;;;;0.96;100.00;100093.75;5100404;28;20059;-59
2023/12/19 09:32:41;;;;;;;0.80;0.80;;;;;;;1.06;100.00;100086.53;5089333;28;20132;-59
2023/12/19 09:35:10;;;;;;;0.77;0.77;;;;;;;1.21;100.00;100084.09;5100857;28;20109;-59
2023/12/19 09:37:38;;;;;;;0.68;0.68;;;;;;;1.16;100.00;100088.22;5097785;28;20044;-59
2023/12/19 09:40:07;;;;;;;0.70;0.70;;;;;;;1.06;100.00;100090.97;5089726;28;20043;-58
2023/12/19 09:42:34;;;;;;;0.70;0.70;;;;;;;1.17;100.00;100084.56;5094585;28;20130;-58
2023/12/19 09:45:01;;;;;;;0.50;0.50;;;;;;;1.34;100.00;100073.06;5096766;28;20054;-58
2023/12/19 09:47:29;;;;;;;0.70;0.70;;;;;;;1.33;100.00;100081.97;5089621;28;20046;-59
2023/12/19 09:49:58;;;;;;;0.68;0.68;;;;;;;1.29;100.00;100072.72;5096544;28;20056;-59
2023/12/19 09:52:27;;;;;;;0.90;0.90;;;;;;;1.44;100.00;100079.03;5091424;28;20420;-59
2023/12/19 09:54:54;;;;;;;0.68;0.68;;;;;;;1.35;100.00;100069.44;5097956;28;20035;-58
2023/12/19 09:57:21;;;;;;;0.70;0.70;;;;;;;1.43;100.00;100082.66;5098573;28;20551;-58
2023/12/19 09:59:48;;;;;;;0.70;0.70;;;;;;;1.41;100.00;100083.81;5089962;28;20040;-59
2023/12/19 10:02:17;;;;;;;0.60;0.60;;;;;;;1.38;100.00;100095.53;5098836;28;20076;-59
2023/12/19 10:04:44;;;;;;;0.60;0.60;;;;;;;1.32;100.00;100095.34;5089324;28;20056;-58
2023/12/19 10:07:11;;;;;;;0.60;0.60;;;;;;;1.30;100.00;100084.97;5085020;28;20252;-58
2023/12/19 10:09:54;;;;;;;0.70;0.70;;;;;;;1.44;100.00;100094.06;5077928;28;20057;-59
2023/12/19 10:12:21;;;;;;;0.60;0.60;;;;;;;1.32;100.00;100106.72;5073854;28;20036;-59
2023/12/19 10:14:51;;;;;;;0.60;0.60;;;;;;;1.29;100.00;100099.94;5092330;28;20032;-59
2023/12/19 10:17:19;;;;;;;0.70;0.70;;;;;;;1.41;100.00;100078.53;5096797;28;20092;-59
2023/12/19 10:19:46;;;;;;;0.60;0.60;;;;;;;1.36;100.00;100092.22;5090096;28;20145;-59
2023/12/19 10:22:16;;;;;;;0.50;0.50;;;;;;;1.37;100.00;100079.84;5100317;28;20139;-58
2023/12/19 10:24:43;;;;;;;0.55;0.55;;;;;;;1.27;100.00;100069.41;5091472;28;20051;-58
2023/12/19 10:27:11;;;;;;;0.70;0.70;;;;;;;1.26;100.00;100065.13;5097385;28;20199;-59
2023/12/19 10:29:38;;;;;;;0.63;0.63;;;;;;;1.36;100.00;100055.25;5093263;28;20051;-59
2023/12/19 10:32:14;;;;;;;0.90;0.90;;;;;;;1.27;100.00;100050.91;5094198;28;20478;-58
2023/12/19 10:34:41;;;;;;;0.60;0.60;;;;;;;1.24;100.00;100052.06;5073470;28;20066;-59
2023/12/19 10:37:12;;;;;;;0.80;0.80;;;;;;;1.38;100.00;100037.41;5096974;28;20052;-59
2023/12/19 10:39:40;;;;;;;0.70;0.70;;;;;;;1.11;100.00;100032.41;5097487;28;20383;-58
2023/12/19 10:42:09;;;;;;;0.65;0.65;;;;;;;1.12;100.00;100018.22;5097532;28;20048;-59
2023/12/19 10:44:40;;;;;;;0.80;0.80;;;;;;;1.15;100.00;99999.41;5090734;28;20520;-59
2023/12/19 10:47:07;;;;;;;;;;;;;;;1.41;100.00;99996.63;5094356;28;20031;-59
2023/12/19 10:49:35;;;;;;;0.70;0.70;;;;;;;1.24;100.00;99966.75;5089116;28;19931;-58
2023/12/19 10:52:05;;;;;;;0.80;0.80;;;;;;;1.41;100.00;99975.50;5079978;28;20075;-58
2023/12/19 10:54:33;;;;;;;0.80;0.80;;;;;;;1.38;100.00;99952.88;5091430;28;20092;-59
2023/12/19 10:57:07;;;;;;;0.57;0.57;;;;;;;1.51;100.00;99953.22;5094991;28;20460;-58
2023/12/19 10:59:45;;;;;;;0.70;0.70;;;;;;;1.45;100.00;99943.31;5092102;28;20046;-58
2023/12/19 11:02:18;;;;;;;0.70;0.70;;;;;;;1.50;100.00;99940.19;5091087;28;20131;-58
2023/12/19 11:04:45;;;;;;;0.70;0.70;;;;;;;1.56;100.00;99925.47;5090393;28;20440;-59
2023/12/19 11:07:13;;;;;;;0.80;0.80;;;;;;;1.49;100.00;99923.47;5088725;28;20040;-59
2023/12/19 11:09:41;;;;;;;0.50;0.50;;;;;;;1.56;100.00;99918.38;5082336;28;20118;-59
2023/12/19 11:12:08;;;;;;;0.70;0.70;;;;;;;1.53;100.00;99923.16;5094945;28;20124;-59
2023/12/19 11:14:35;;;;;;;0.80;0.80;;;;;;;1.61;100.00;99918.69;5093273;28;20047;-58
2023/12/19 11:17:08;;;;;;;0.60;0.60;;;;;;;1.68;100.00;99906.47;5090623;28;20043;-58
2023/12/19 11:19:44;;;;;;;0.73;0.73;;;;;;;1.67;100.00;99898.69;5090932;28;20040;-58
2023/12/19 11:22:15;;;;;;;0.70;0.70;;;;;;;1.72;100.00;99894.56;5097198;28;20054;-58
2023/12/19 11:24:42;;;;;;;;;;;;;;;1.62;100.00;99874.59;5094788;28;20174;-58
2023/12/19 11:27:13;;;;;;;0.60;0.60;;;;;;;1.64;100.00;99886.63;5094081;28;19924;-60